Time;durP1;ratioP1;P1;durP2;ratioP2;P2;SDS_P1;SDS_P2;PMS_P1;PMS_P2;Temp;Humidity;BMP_temperature;BMP_pressure;BME280_temperature;BME280_humidity;BME280_pressure;Samples;Min_cycle;Max_cycle;Signal;HPM_P1;HPM_P2
2021/01/18 00:02:01;;;;;;;117.13;83.97;;;-2.70;99.90;;;;;;4938088;28;20406;-74
2021/01/18 00:04:26;;;;;;;119.10;83.35;;;-2.70;99.90;;;;;;4971172;28;20820;-74
2021/01/18 00:06:53;;;;;;;114.63;78.82;;;-2.80;99.90;;;;;;4956775;28;20404;-73
2021/01/18 00:09:19;;;;;;;90.90;66.97;;;-2.80;99.90;;;;;;4975381;28;20421;-74
2021/01/18 00:11:54;;;;;;;88.63;64.40;;;-2.80;99.90;;;;;;4977855;28;20457;-74
2021/01/18 00:14:20;;;;;;;91.38;66.10;;;;;;;;;;4978178;28;20461;-73
2021/01/18 00:16:47;;;;;;;94.30;67.80;;;;;;;;;;4977508;28;20513;-73
2021/01/18 00:19:15;;;;;;;88.43;64.65;;;;;;;;;;4978208;28;20402;-73
2021/01/18 00:21:44;;;;;;;97.40;69.65;;;;;;;;;;4978031;28;20786;-74
2021/01/18 00:24:11;;;;;;;95.03;67.57;;;-3.10;99.90;;;;;;4990787;28;20436;-73
2021/01/18 00:26:37;;;;;;;90.93;65.45;;;-2.90;99.90;;;;;;4964420;28;20405;-74
2021/01/18 00:29:03;;;;;;;86.23;62.47;;;-2.90;99.90;;;;;;4967162;28;20410;-74
2021/01/18 00:31:29;;;;;;;86.22;62.88;;;;;;;;;;4977848;28;20422;-73
2021/01/18 00:33:55;;;;;;;82.40;60.13;;;;;;;;;;4976970;28;20410;-73
2021/01/18 00:36:22;;;;;;;85.80;62.70;;;;;;;;;;4967713;28;20772;-74
2021/01/18 00:38:48;;;;;;;85.10;60.75;;;;;;;;;;4975974;28;20880;-73
2021/01/18 00:41:14;;;;;;;92.30;65.60;;;;;;;;;;4978897;28;20480;-74
2021/01/18 00:43:41;;;;;;;92.60;64.97;;;;;;;;;;4966780;28;20419;-73
2021/01/18 00:46:07;;;;;;;86.25;62.80;;;;;;;;;;4964364;28;20891;-74
2021/01/18 00:48:33;;;;;;;94.68;68.28;;;;;;;;;;4975997;28;20436;-74
2021/01/18 00:50:59;;;;;;;83.38;59.70;;;;;;;;;;4974516;28;20413;-74
2021/01/18 00:53:36;;;;;;;99.70;70.53;;;;;;;;;;4967875;28;20955;-74
2021/01/18 00:56:03;;;;;;;88.77;62.37;;;;;;;;;;4972102;28;20527;-74
2021/01/18 00:58:29;;;;;;;88.13;62.42;;;;;;;;;;4979830;28;20952;-74
2021/01/18 01:00:55;;;;;;;83.00;61.42;;;;;;;;;;4961167;28;20771;-74
2021/01/18 01:03:21;;;;;;;84.57;60.70;;;;;;;;;;4970468;28;20410;-74
2021/01/18 01:05:47;;;;;;;89.25;63.63;;;;;;;;;;4948281;28;20417;-74
2021/01/18 01:08:14;;;;;;;113.07;78.68;;;;;;;;;;4970519;28;20417;-74
2021/01/18 01:10:41;;;;;;;95.80;66.78;;;;;;;;;;4948319;28;20402;-74
2021/01/18 01:13:10;;;;;;;97.18;67.32;;;;;;;;;;4938445;28;20421;-73
2021/01/18 01:15:37;;;;;;;90.80;63.45;;;;;;;;;;4955754;28;20409;-74
2021/01/18 01:18:04;;;;;;;91.82;64.65;;;;;;;;;;4937662;29;20430;-73
2021/01/18 01:20:32;;;;;;;89.05;63.40;;;;;;;;;;4938407;29;20429;-73
2021/01/18 01:22:58;;;;;;;104.90;74.75;;;;;;;;;;4970348;28;20417;-74
2021/01/18 01:25:25;;;;;;;102.57;71.63;;;;;;;;;;4938026;29;20515;-74
2021/01/18 01:27:53;;;;;;;94.15;67.18;;;;;;;;;;4970388;28;20417;-73
2021/01/18 01:30:20;;;;;;;86.40;62.97;;;;;;;;;;4955048;29;20930;-74
2021/01/18 01:32:49;;;;;;;85.32;61.15;;;;;;;;;;4938018;29;20437;-74
2021/01/18 01:35:17;;;;;;;82.35;61.72;;;;;;;;;;4955596;28;20410;-74
2021/01/18 01:37:43;;;;;;;97.07;67.43;;;;;;;;;;4949681;28;20459;-73
2021/01/18 01:40:11;;;;;;;94.03;65.95;;;;;;;;;;4944340;29;20826;-74
2021/01/18 01:42:37;;;;;;;91.90;64.40;;;;;;;;;;4955076;28;20497;-74
2021/01/18 01:45:05;;;;;;;88.15;61.42;;;;;;;;;;4970963;28;20414;-74
2021/01/18 01:47:41;;;;;;;113.03;74.68;;;;;;;;;;4975263;28;20414;-74
2021/01/18 01:50:12;;;;;;;95.43;64.93;;;;;;;;;;4955358;28;20406;-74
2021/01/18 01:52:40;;;;;;;117.03;78.47;;;;;;;;;;4969750;28;20413;-74
2021/01/18 01:55:08;;;;;;;98.05;66.72;;;;;;;;;;4953812;28;20401;-74
2021/01/18 01:57:36;;;;;;;105.13;73.47;;;;;;;;;;4937625;29;20414;-73
2021/01/18 02:00:23;;;;;;;;;;;;;;;;;;;;;
2021/01/18 02:02:51;;;;;;;91.22;65.05;;;;;;;;;;5010968;23;20930;-74
2021/01/18 02:05:17;;;;;;;94.07;64.43;;;;;;;;;;5027370;28;20504;-74
2021/01/18 02:07:43;;;;;;;97.32;64.50;;;;;;;;;;5020344;28;20405;-74
2021/01/18 02:10:10;;;;;;;94.50;64.47;;;;;;;;;;5018126;28;20411;-74
2021/01/18 02:12:37;;;;;;;100.10;68.35;;;;;;;;;;5034158;28;20406;-74
2021/01/18 02:15:09;;;;;;;97.72;68.50;;;;;;;;;;5017856;28;20469;-74
2021/01/18 02:17:37;;;;;;;94.97;65.35;;;;;;;;;;5032224;28;20411;-74
2021/01/18 02:20:19;;;;;;;89.28;63.55;;;;;;;;;;5028352;28;20421;-74
2021/01/18 02:22:55;;;;;;;90.15;64.20;;;;;;;;;;5030583;28;20419;-74
2021/01/18 02:25:29;;;;;;;111.80;77.38;;;;;;;;;;5021075;28;20492;-77
2021/01/18 02:28:00;;;;;;;105.63;71.50;;;;;;;;;;5034247;28;20412;-74
2021/01/18 02:30:32;;;;;;;92.53;65.35;;;;;;;;;;5034151;28;20397;-74
2021/01/18 02:33:19;;;;;;;94.25;65.03;;;;;;;;;;5039091;28;20827;-74
2021/01/18 02:36:15;;;;;;;92.03;64.30;;;;;;;;;;5033822;28;20474;-75
2021/01/18 02:38:48;;;;;;;87.47;62.43;;;;;;;;;;5020809;28;20415;-75
2021/01/18 02:41:18;;;;;;;94.93;65.85;;;;;;;;;;5025730;28;20884;-75
2021/01/18 02:43:47;;;;;;;95.87;66.17;;;;;;;;;;5033732;28;20458;-74
2021/01/18 02:46:15;;;;;;;88.78;62.20;;;;;;;;;;5033757;28;20423;-74
2021/01/18 02:48:42;;;;;;;90.72;65.55;;;;;;;;;;5030552;28;20410;-74
2021/01/18 02:51:09;;;;;;;84.45;59.53;;;;;;;;;;5030156;28;20411;-74
2021/01/18 02:53:38;;;;;;;89.35;61.65;;;;;;;;;;5033670;28;20892;-74
2021/01/18 02:56:06;;;;;;;99.55;68.72;;;;;;;;;;5036612;28;20398;-74
2021/01/18 02:58:35;;;;;;;90.78;63.97;;;;;;;;;;5030809;28;20416;-74
2021/01/18 03:01:06;;;;;;;90.30;63.50;;;;;;;;;;5046157;28;20487;-75
2021/01/18 03:03:35;;;;;;;83.10;59.30;;;;;;;;;;5017189;28;20408;-75
2021/01/18 03:06:07;;;;;;;88.93;61.30;;;;;;;;;;5026711;28;20411;-74
2021/01/18 03:08:35;;;;;;;89.50;60.97;;;;;;;;;;5030051;28;20471;-75
2021/01/18 03:11:07;;;;;;;96.00;65.72;;;-4.20;99.90;;;;;;5013779;28;20414;-74
2021/01/18 03:13:38;;;;;;;83.25;59.17;;;-4.30;99.90;;;;;;5003880;28;20920;-74
2021/01/18 03:16:14;;;;;;;80.95;57.13;;;-4.10;99.90;;;;;;5031773;28;20437;-75
2021/01/18 03:18:43;;;;;;;86.28;61.10;;;-4.10;99.90;;;;;;5013763;28;20928;-75
2021/01/18 03:21:10;;;;;;;83.40;59.30;;;-4.10;99.90;;;;;;5009614;28;20406;-75
2021/01/18 03:23:39;;;;;;;85.35;60.45;;;-4.20;99.90;;;;;;5027312;28;20428;-74
2021/01/18 03:26:06;;;;;;;87.93;61.80;;;-4.00;99.90;;;;;;5013586;28;20428;-74
2021/01/18 03:28:32;;;;;;;104.70;70.67;;;-4.10;99.90;;;;;;5013823;28;20399;-74
2021/01/18 03:30:58;;;;;;;91.93;64.70;;;-4.30;99.90;;;;;;4999751;28;20454;-74
2021/01/18 03:33:24;;;;;;;93.25;65.20;;;-4.20;99.90;;;;;;5013750;28;20434;-75
2021/01/18 03:35:50;;;;;;;88.18;60.58;;;-4.40;99.90;;;;;;5013279;28;20485;-75
2021/01/18 03:38:16;;;;;;;92.75;64.85;;;-4.30;99.90;;;;;;5030163;28;20473;-74
2021/01/18 03:40:42;;;;;;;100.97;70.68;;;-4.40;99.90;;;;;;5012988;28;20934;-75
2021/01/18 03:43:09;;;;;;;90.37;63.20;;;-4.40;99.90;;;;;;5017233;28;20409;-74
2021/01/18 03:45:37;;;;;;;95.88;65.63;;;-4.30;99.90;;;;;;5017538;28;20766;-75
2021/01/18 03:48:04;;;;;;;82.82;58.60;;;-4.40;99.90;;;;;;5003483;28;20403;-75
2021/01/18 03:50:30;;;;;;;92.63;63.22;;;-4.30;99.90;;;;;;5035422;28;20391;-74
2021/01/18 03:52:56;;;;;;;85.90;59.83;;;-4.20;99.90;;;;;;5014238;28;20407;-75
2021/01/18 03:55:22;;;;;;;83.55;57.92;;;-4.20;99.90;;;;;;5015415;28;20427;-74
2021/01/18 03:57:49;;;;;;;82.93;59.17;;;-4.10;99.90;;;;;;5013824;28;20417;-75
2021/01/18 04:00:18;;;;;;;89.78;64.15;;;-4.20;99.90;;;;;;5004904;28;20439;-74
2021/01/18 04:02:47;;;;;;;87.38;61.90;;;-4.30;99.90;;;;;;5012039;28;20494;-75
2021/01/18 04:05:14;;;;;;;97.70;66.97;;;-4.30;99.90;;;;;;4993828;28;20410;-74
2021/01/18 04:07:40;;;;;;;92.07;64.50;;;-4.50;99.90;;;;;;5004397;28;20437;-75
2021/01/18 04:10:08;;;;;;;85.07;59.20;;;-4.40;99.90;;;;;;4988678;28;20395;-74
2021/01/18 04:12:38;;;;;;;76.10;55.50;;;-4.40;99.90;;;;;;4995206;28;20422;-74
2021/01/18 04:15:05;;;;;;;85.43;59.65;;;-4.30;99.90;;;;;;4995336;28;20407;-75
2021/01/18 04:17:32;;;;;;;81.60;58.30;;;-4.30;99.90;;;;;;4995181;28;20429;-75
2021/01/18 04:19:57;;;;;;;112.80;77.70;;;-4.30;99.90;;;;;;4991498;28;20505;-74
2021/01/18 04:22:23;;;;;;;93.75;66.03;;;-4.40;99.90;;;;;;4994031;28;20414;-75
2021/01/18 04:24:49;;;;;;;84.70;59.75;;;-4.30;99.90;;;;;;4993956;28;20458;-74
2021/01/18 04:27:15;;;;;;;88.03;62.05;;;-4.30;99.90;;;;;;4993555;28;20425;-75
2021/01/18 04:29:41;;;;;;;94.10;64.65;;;-4.30;99.90;;;;;;4993869;28;20934;-74
2021/01/18 04:32:07;;;;;;;113.13;76.23;;;-4.40;99.90;;;;;;4996773;28;20432;-75
2021/01/18 04:34:34;;;;;;;121.38;80.75;;;-4.40;99.90;;;;;;4999035;28;20908;-74
2021/01/18 04:37:01;;;;;;;110.25;73.85;;;-4.40;99.90;;;;;;5010736;28;20471;-75
2021/01/18 04:39:27;;;;;;;90.47;64.15;;;-4.30;99.90;;;;;;5011306;28;20900;-74
2021/01/18 04:41:53;;;;;;;104.95;70.22;;;-4.20;99.90;;;;;;5004198;28;20449;-75
2021/01/18 04:44:21;;;;;;;89.75;61.58;;;-4.30;99.90;;;;;;4995647;28;20417;-74
2021/01/18 04:46:47;;;;;;;81.85;58.08;;;-4.20;99.90;;;;;;5011540;28;20979;-75
2021/01/18 04:49:14;;;;;;;84.17;59.20;;;-4.10;99.90;;;;;;5000325;28;20477;-75
2021/01/18 04:51:44;;;;;;;85.53;60.63;;;-4.30;99.90;;;;;;4993444;28;20404;-75
2021/01/18 04:54:14;;;;;;;83.57;60.27;;;-4.30;99.90;;;;;;4994063;28;20541;-74
2021/01/18 04:57:10;;;;;;;84.20;59.53;;;-4.30;99.90;;;;;;5006339;28;20432;-75
2021/01/18 04:59:44;;;;;;;85.07;60.58;;;-4.30;99.90;;;;;;4990778;28;20551;-74
2021/01/18 05:02:14;;;;;;;84.78;59.47;;;-4.20;99.90;;;;;;5001714;28;20417;-74
2021/01/18 05:04:42;;;;;;;96.55;67.45;;;-4.20;99.90;;;;;;4995830;28;20564;-75
2021/01/18 05:07:47;;;;;;;96.35;67.57;;;-4.20;99.90;;;;;;4999993;28;20459;-75
2021/01/18 05:10:25;;;;;;;99.25;69.13;;;-4.10;99.90;;;;;;4998472;28;20488;-74
2021/01/18 05:12:55;;;;;;;110.78;75.85;;;-4.00;99.90;;;;;;5007409;28;20416;-75
2021/01/18 05:15:22;;;;;;;163.15;99.28;;;-4.00;99.90;;;;;;5004921;28;20852;-74
2021/01/18 05:17:48;;;;;;;134.07;86.65;;;;;;;;;;5007784;28;20410;-75
2021/01/18 05:20:15;;;;;;;147.50;94.43;;;;;;;;;;5004651;28;20888;-74
2021/01/18 05:22:42;;;;;;;120.15;80.60;;;;;;;;;;5002645;28;20406;-75
2021/01/18 05:25:09;;;;;;;158.63;97.20;;;;;;;;;;4994782;28;20419;-75
2021/01/18 05:27:56;;;;;;;150.13;95.25;;;;;;;;;;4998536;28;20788;-74
2021/01/18 05:30:23;;;;;;;215.90;119.00;;;;;;;;;;5012450;28;20431;-75
2021/01/18 05:32:59;;;;;;;391.80;169.67;;;;;;;;;;5011997;28;20411;-75
2021/01/18 05:35:25;;;;;;;886.10;257.17;;;-3.90;99.90;;;;;;4999543;28;20422;-74
2021/01/18 05:37:58;;;;;;;1015.83;283.58;;;;;;;;;;5010854;28;20421;-74
2021/01/18 05:40:25;;;;;;;630.95;218.15;;;;;;;;;;5012056;28;20405;-75
2021/01/18 05:42:52;;;;;;;850.85;233.43;;;;;;;;;;4998070;28;20400;-74
2021/01/18 05:45:31;;;;;;;857.90;231.30;;;;;;;;;;5011968;28;20431;-75
2021/01/18 05:47:59;;;;;;;1187.93;294.88;;;;;;;;;;5011953;28;20401;-74
2021/01/18 05:50:26;;;;;;;751.75;229.80;;;;;;;;;;5012155;28;20424;-75
2021/01/18 05:52:52;;;;;;;302.02;145.52;;;;;;;;;;5011947;28;20412;-74
2021/01/18 05:55:20;;;;;;;854.78;238.10;;;;;;;;;;5011210;28;20462;-74
2021/01/18 05:57:47;;;;;;;382.48;162.43;;;;;;;;;;4993903;28;20430;-76
2021/01/18 06:00:22;;;;;;;645.80;203.55;;;;;;;;;;5008662;28;20430;-75
2021/01/18 06:02:49;;;;;;;361.45;159.18;;;;;;;;;;5016390;28;20409;-74
2021/01/18 06:05:15;;;;;;;274.13;136.07;;;;;;;;;;5009601;28;20432;-75
2021/01/18 06:07:42;;;;;;;328.88;136.40;;;;;;;;;;5011051;28;20404;-75
2021/01/18 06:10:08;;;;;;;216.63;118.20;;;;;;;;;;5004842;28;20412;-74
2021/01/18 06:12:36;;;;;;;375.65;133.27;;;;;;;;;;5003401;28;20397;-75
2021/01/18 06:15:07;;;;;;;225.15;111.88;;;;;;;;;;5011685;28;20408;-74
2021/01/18 06:17:36;;;;;;;206.25;111.68;;;;;;;;;;5007776;28;20499;-74
2021/01/18 06:20:03;;;;;;;624.50;161.20;;;;;;;;;;5011307;28;20411;-74
2021/01/18 06:22:30;;;;;;;266.98;123.50;;;;;;;;;;5010995;28;20991;-74
2021/01/18 06:24:56;;;;;;;219.30;118.82;;;;;;;;;;5007032;28;20499;-74
2021/01/18 06:27:32;;;;;;;291.95;125.88;;;;;;;;;;5008117;28;20888;-74
2021/01/18 06:29:58;;;;;;;155.57;90.00;;;;;;;;;;5011330;28;20880;-74
2021/01/18 06:32:28;;;;;;;388.13;126.97;;;;;;;;;;4997197;28;20890;-74
2021/01/18 06:34:59;;;;;;;440.55;141.70;;;;;;;;;;5011268;28;20459;-74
2021/01/18 06:37:28;;;;;;;498.05;166.52;;;;;;;;;;5009085;28;20971;-75
2021/01/18 06:39:56;;;;;;;450.83;158.45;;;;;;;;;;5008052;28;20439;-75
2021/01/18 06:42:23;;;;;;;366.95;142.63;;;;;;;;;;5010561;28;20401;-75
2021/01/18 06:44:50;;;;;;;438.75;150.93;;;;;;;;;;5010765;28;20401;-75
2021/01/18 06:47:23;;;;;;;331.37;141.77;;;;;;;;;;5011025;28;20879;-75
2021/01/18 06:49:51;;;;;;;257.92;124.85;;;;;;;;;;5010804;28;20405;-75
2021/01/18 06:52:22;;;;;;;397.15;148.98;;;;;;;;;;5010412;28;20463;-74
2021/01/18 06:54:51;;;;;;;430.70;155.65;;;;;;;;;;5011401;28;20768;-74
2021/01/18 06:57:20;;;;;;;436.80;162.88;;;;;;;;;;5010368;28;20420;-75
2021/01/18 06:59:52;;;;;;;528.88;186.68;;;;;;;;;;5008284;28;20439;-74
2021/01/18 07:02:33;;;;;;;553.28;199.85;;;;;;;;;;5009943;28;20447;-75
2021/01/18 07:05:09;;;;;;;477.02;179.27;;;;;;;;;;5008304;28;20926;-74
2021/01/18 07:07:37;;;;;;;370.48;160.13;;;;;;;;;;5007804;28;20915;-75
2021/01/18 07:10:06;;;;;;;526.83;193.55;;;;;;;;;;5005934;28;20423;-75
2021/01/18 07:12:32;;;;;;;577.47;190.75;;;;;;;;;;5007616;28;20439;-75
2021/01/18 07:15:00;;;;;;;251.05;130.55;;;;;;;;;;5007367;28;20407;-74
2021/01/18 07:17:29;;;;;;;371.67;155.93;;;;;;;;;;5008096;28;20456;-75
2021/01/18 07:19:58;;;;;;;317.95;148.98;;;;;;;;;;5008124;28;20416;-74
2021/01/18 07:22:35;;;;;;;485.73;189.53;;;;;;;;;;5010116;28;20404;-75
2021/01/18 07:25:03;;;;;;;450.60;187.02;;;;;;;;;;5007466;28;20467;-74
2021/01/18 07:27:31;;;;;;;461.88;188.23;;;;;;;;;;5006848;28;20405;-74
2021/01/18 07:30:01;;;;;;;298.13;156.75;;;;;;;;;;5003747;28;20439;-74
2021/01/18 07:32:27;;;;;;;245.82;134.40;;;;;;;;;;4997677;28;20405;-74
2021/01/18 07:34:53;;;;;;;339.53;142.63;;;;;;;;;;5008420;28;20416;-75
2021/01/18 07:37:21;;;;;;;204.35;114.93;;;;;;;;;;5011600;28;20482;-75
2021/01/18 07:39:47;;;;;;;160.23;99.38;;;;;;;;;;5000145;28;20806;-75
2021/01/18 07:42:32;;;;;;;160.25;94.60;;;;;;;;;;5006641;28;20401;-75
2021/01/18 07:45:12;;;;;;;155.13;97.47;;;;;;;;;;5004126;28;20404;-75
2021/01/18 07:47:53;;;;;;;232.60;122.95;;;;;;;;;;5001138;28;20483;-75
2021/01/18 07:50:26;;;;;;;223.48;125.72;;;;;;;;;;5000503;28;20445;-75
2021/01/18 07:52:57;;;;;;;209.20;124.70;;;;;;;;;;5002397;28;20403;-75
2021/01/18 07:55:23;;;;;;;206.75;125.10;;;;;;;;;;5011098;28;21011;-75
2021/01/18 07:57:49;;;;;;;164.60;104.85;;;;;;;;;;5001873;28;20418;-75
2021/01/18 08:00:32;;;;;;;130.85;89.20;;;;;;;;;;4998594;28;20431;-76
2021/01/18 08:03:22;;;;;;;138.80;95.75;;;;;;;;;;4993016;28;20418;-75
2021/01/18 08:05:52;;;;;;;130.75;89.72;;;-2.90;99.90;;;;;;4988695;28;20893;-76
2021/01/18 08:08:19;;;;;;;141.55;97.32;;;-1.80;99.90;;;;;;4987616;28;20414;-75
2021/01/18 08:10:53;;;;;;;119.78;83.22;;;-1.90;99.90;;;;;;4988572;28;20433;-76
2021/01/18 08:13:58;;;;;;;106.50;75.63;;;-1.70;99.90;;;;;;4991626;28;20905;-76
2021/01/18 08:16:42;;;;;;;116.00;83.40;;;-1.50;99.90;;;;;;4983851;28;20463;-76
2021/01/18 08:19:17;;;;;;;133.65;91.88;;;-1.90;99.90;;;;;;4990484;28;20402;-76
2021/01/18 08:22:00;;;;;;;147.00;102.88;;;-2.20;99.90;;;;;;4988218;28;20886;-76
2021/01/18 08:24:48;;;;;;;145.03;98.13;;;-2.20;99.90;;;;;;4985302;28;20440;-76
2021/01/18 08:27:14;;;;;;;126.22;89.80;;;-2.20;99.90;;;;;;4990350;28;20399;-76
2021/01/18 08:29:44;;;;;;;127.82;90.60;;;-1.90;99.90;;;;;;4993737;28;20764;-76
2021/01/18 08:32:43;;;;;;;141.80;97.10;;;-1.80;99.90;;;;;;4983325;28;20783;-78
2021/01/18 08:35:32;;;;;;;140.38;98.85;;;-1.80;99.90;;;;;;4964974;28;20473;-76
2021/01/18 08:38:00;;;;;;;223.83;146.50;;;-1.60;99.90;;;;;;4981535;28;20410;-76
2021/01/18 08:40:32;;;;;;;108.70;79.65;;;-1.50;99.90;;;;;;4993787;28;20406;-75
2021/01/18 08:42:58;;;;;;;100.67;74.43;;;-1.30;99.90;;;;;;4993767;28;20410;-76
2021/01/18 08:45:27;;;;;;;96.78;71.05;;;-1.10;99.90;;;;;;4993727;28;20406;-75
2021/01/18 08:47:55;;;;;;;102.00;76.97;;;;;;;;;;4994876;28;20422;-76
2021/01/18 08:50:22;;;;;;;107.72;79.38;;;;;;;;;;4994927;28;20464;-76
2021/01/18 08:52:49;;;;;;;116.65;82.78;;;-1.10;99.90;;;;;;4993558;28;20414;-75
2021/01/18 08:55:42;;;;;;;125.40;88.57;;;-1.50;99.90;;;;;;4993609;28;20457;-75
2021/01/18 08:58:09;;;;;;;135.73;98.75;;;-1.50;99.90;;;;;;4977019;28;20420;-75
2021/01/18 09:00:42;;;;;;;133.52;96.60;;;-1.40;99.90;;;;;;4991206;28;20415;-75
2021/01/18 09:03:10;;;;;;;117.28;86.20;;;-1.40;99.90;;;;;;4997714;28;20428;-75
2021/01/18 09:05:37;;;;;;;107.68;81.25;;;-1.00;99.90;;;;;;5009316;28;20432;-74
2021/01/18 09:08:07;;;;;;;107.13;79.70;;;-0.90;99.90;;;;;;5012282;28;20937;-74
2021/01/18 09:10:33;;;;;;;108.05;79.68;;;-0.80;99.90;;;;;;5009722;28;20503;-74
2021/01/18 09:13:03;;;;;;;100.97;75.85;;;-0.70;99.90;;;;;;5011655;28;20400;-75
2021/01/18 09:15:29;;;;;;;87.88;66.65;;;-0.60;99.90;;;;;;5011202;28;20409;-74
2021/01/18 09:17:55;;;;;;;85.33;64.83;;;;;;;;;;5008142;28;20409;-74
2021/01/18 09:20:22;;;;;;;86.28;64.85;;;;;;;;;;5007724;28;21101;-74
2021/01/18 09:22:49;;;;;;;82.53;65.97;;;;;;;;;;5005497;28;20412;-75
2021/01/18 09:25:15;;;;;;;73.82;55.70;;;;;;;;;;5001730;28;20803;-75
2021/01/18 09:27:42;;;;;;;69.45;53.20;;;;;;;;;;5012632;28;20512;-75
2021/01/18 09:30:09;;;;;;;71.45;55.53;;;;;;;;;;5012692;28;20401;-74
2021/01/18 09:32:36;;;;;;;78.28;58.13;;;;;;;;;;5026286;28;20401;-74
2021/01/18 09:35:03;;;;;;;71.85;55.42;;;;;;;;;;5016748;28;20459;-73
2021/01/18 09:37:30;;;;;;;69.18;51.22;;;;;;;;;;5012180;28;20421;-73
2021/01/18 09:39:57;;;;;;;60.58;48.25;;;;;;;;;;5011838;28;20413;-74
2021/01/18 09:42:23;;;;;;;66.45;51.95;;;;;;;;;;5012380;28;20404;-75
2021/01/18 09:44:49;;;;;;;68.40;52.38;;;;;;;;;;5012428;28;20400;-74
2021/01/18 09:47:16;;;;;;;66.80;52.65;;;;;;;;;;5013704;28;20424;-74
2021/01/18 09:49:42;;;;;;;61.67;50.67;;;;;;;;;;5012160;28;20951;-74
2021/01/18 09:52:09;;;;;;;67.13;53.45;;;;;;;;;;5012186;28;20448;-74
2021/01/18 09:54:39;;;;;;;65.07;52.38;;;;;;;;;;5012073;28;20412;-75
2021/01/18 09:57:10;;;;;;;67.43;56.08;;;;;;;;;;5007236;28;20546;-74
2021/01/18 09:59:40;;;;;;;67.45;56.20;;;;;;;;;;5006875;28;20997;-75
2021/01/18 10:02:11;;;;;;;75.78;61.10;;;;;;;;;;5011801;28;20396;-75
2021/01/18 10:04:38;;;;;;;74.93;59.55;;;;;;;;;;5011817;28;20479;-75
2021/01/18 10:07:06;;;;;;;75.45;60.10;;;;;;;;;;5011909;28;20415;-75
2021/01/18 10:09:34;;;;;;;68.60;56.80;;;;;;;;;;5011977;28;20427;-74
2021/01/18 10:12:03;;;;;;;69.40;56.83;;;;;;;;;;5001518;28;20416;-74
2021/01/18 10:14:29;;;;;;;71.47;60.15;;;;;;;;;;5011053;28;20487;-74
2021/01/18 10:16:59;;;;;;;72.68;59.10;;;;;;;;;;5008906;28;20467;-75
2021/01/18 10:19:25;;;;;;;70.30;58.28;;;;;;;;;;5011252;28;20423;-74
2021/01/18 10:21:51;;;;;;;71.25;57.17;;;;;;;;;;5009671;28;20408;-73
2021/01/18 10:24:24;;;;;;;71.78;58.67;;;;;;;;;;5010462;28;20487;-74
2021/01/18 10:26:54;;;;;;;74.72;59.88;;;-0.50;99.90;;;;;;5012792;28;20467;-74
2021/01/18 10:29:23;;;;;;;77.10;62.15;;;2.90;99.90;;;;;;5011573;28;20409;-74
2021/01/18 10:31:51;;;;;;;79.53;64.75;;;2.80;99.90;;;;;;5005433;28;20406;-74
2021/01/18 10:34:26;;;;;;;74.55;62.25;;;2.90;99.90;;;;;;5009685;28;20761;-74
2021/01/18 10:36:53;;;;;;;76.57;61.50;;;3.10;99.90;;;;;;4997752;28;20407;-74
2021/01/18 10:39:28;;;;;;;76.00;61.38;;;3.00;99.90;;;;;;5008016;28;20792;-74
2021/01/18 10:42:02;;;;;;;91.57;75.70;;;;;;;;;;5000373;28;20403;-73
2021/01/18 10:44:29;;;;;;;72.90;60.90;;;3.00;99.90;;;;;;4991625;28;20410;-73
2021/01/18 10:46:55;;;;;;;70.25;58.35;;;3.20;99.90;;;;;;5002336;28;20441;-73
2021/01/18 10:49:25;;;;;;;71.07;57.83;;;;;;;;;;5018232;28;20410;-73
2021/01/18 10:52:02;;;;;;;66.60;56.45;;;;;;;;;;5000022;28;20428;-74
2021/01/18 10:54:28;;;;;;;68.60;55.15;;;;;;;;;;5000072;28;20916;-75
2021/01/18 10:56:55;;;;;;;64.97;54.05;;;;;;;;;;5001730;28;20492;-75
2021/01/18 10:59:22;;;;;;;66.63;54.75;;;;;;;;;;5002098;28;20900;-74
2021/01/18 11:02:05;;;;;;;64.28;52.72;;;;;;;;;;5001438;28;20401;-75
2021/01/18 11:04:34;;;;;;;56.65;48.55;;;;;;;;;;5000932;28;25113;-75
2021/01/18 11:07:00;;;;;;;58.95;50.17;;;;;;;;;;5017901;28;20413;-75
2021/01/18 11:09:27;;;;;;;62.78;51.90;;;;;;;;;;5000715;28;20839;-75
2021/01/18 11:11:53;;;;;;;61.05;51.15;;;;;;;;;;5001812;28;20405;-74
2021/01/18 11:14:20;;;;;;;59.78;50.60;;;;;;;;;;5000279;28;20417;-74
2021/01/18 11:16:55;;;;;;;58.83;48.13;;;;;;;;;;5000728;28;20401;-75
2021/01/18 11:19:24;;;;;;;56.47;46.22;;;;;;;;;;4999812;28;20414;-75
2021/01/18 11:21:50;;;;;;;51.85;43.05;;;;;;;;;;4997830;28;20422;-74
2021/01/18 11:24:16;;;;;;;52.10;43.45;;;;;;;;;;5009854;28;20416;-74
2021/01/18 11:26:42;;;;;;;50.13;40.42;;;;;;;;;;5010245;28;20409;-74
2021/01/18 11:29:09;;;;;;;42.45;35.15;;;;;;;;;;4996652;28;20455;-74
2021/01/18 11:31:35;;;;;;;47.33;40.05;;;;;;;;;;5001584;28;20422;-74
2021/01/18 11:34:01;;;;;;;45.47;39.15;;;;;;;;;;5004160;28;20405;-74
2021/01/18 11:36:28;;;;;;;41.30;35.15;;;;;;;;;;5004992;28;20410;-75
2021/01/18 11:38:54;;;;;;;46.63;39.50;;;;;;;;;;5010176;28;20412;-75
2021/01/18 11:41:20;;;;;;;42.03;35.73;;;6.90;91.90;;;;;;5013425;28;20463;-75
2021/01/18 11:43:46;;;;;;;41.70;36.33;;;;;;;;;;5010961;28;20404;-75
2021/01/18 11:46:16;;;;;;;38.92;32.47;;;;;;;;;;5004702;28;20413;-74
2021/01/18 11:48:42;;;;;;;36.92;31.35;;;;;;;;;;5009362;28;20409;-76
2021/01/18 11:51:09;;;;;;;44.50;37.78;;;;;;;;;;4999822;28;20425;-75
2021/01/18 11:53:36;;;;;;;46.97;39.92;;;;;;;;;;5004681;28;20401;-75
2021/01/18 11:56:02;;;;;;;44.80;37.42;;;;;;;;;;5010324;28;20463;-75
2021/01/18 11:58:28;;;;;;;38.45;34.15;;;;;;;;;;5026249;28;20776;-75
2021/01/18 12:00:54;;;;;;;39.65;34.72;;;;;;;;;;5002980;28;20433;-75
2021/01/18 12:03:20;;;;;;;33.45;27.42;;;;;;;;;;5011419;28;20515;-75
2021/01/18 12:05:47;;;;;;;34.10;29.25;;;;;;;;;;5013092;28;20415;-75
2021/01/18 12:08:13;;;;;;;31.10;26.90;;;;;;;;;;5012933;28;20401;-74
2021/01/18 12:10:41;;;;;;;36.50;30.52;;;;;;;;;;5027888;28;20440;-75
2021/01/18 12:13:07;;;;;;;36.55;32.22;;;;;;;;;;5011954;28;20409;-75
2021/01/18 12:15:33;;;;;;;56.85;40.03;;;;;;;;;;5012937;28;20400;-75
2021/01/18 12:18:00;;;;;;;47.92;37.58;;;7.10;90.80;;;;;;5010764;28;20517;-75
2021/01/18 12:20:27;;;;;;;47.95;42.95;;;8.30;76.20;;;;;;5013551;28;20495;-75
2021/01/18 12:22:53;;;;;;;37.95;33.65;;;8.20;76.40;;;;;;5012845;28;20408;-75
2021/01/18 12:25:19;;;;;;;35.05;30.27;;;8.10;75.60;;;;;;5013059;28;20459;-75
2021/01/18 12:27:49;;;;;;;36.80;32.22;;;;;;;;;;5014512;28;20389;-74
2021/01/18 12:30:16;;;;;;;35.25;30.65;;;;;;;;;;5003636;28;20405;-75
2021/01/18 12:32:42;;;;;;;35.33;30.05;;;8.20;75.80;;;;;;5002625;28;20422;-76
2021/01/18 12:35:11;;;;;;;32.35;28.63;;;8.60;74.20;;;;;;5002537;28;20403;-75
2021/01/18 12:37:37;;;;;;;31.92;27.00;;;8.60;68.60;;;;;;5001591;28;20420;-76
2021/01/18 12:40:04;;;;;;;30.90;25.88;;;8.50;68.80;;;;;;5001538;28;20409;-75
2021/01/18 12:42:30;;;;;;;28.80;22.80;;;8.50;69.30;;;;;;5003484;28;20442;-75
2021/01/18 12:44:56;;;;;;;30.07;25.70;;;8.60;66.90;;;;;;5003585;28;20914;-76
2021/01/18 12:47:22;;;;;;;25.17;21.53;;;8.60;65.00;;;;;;5002283;28;20416;-74
2021/01/18 12:49:48;;;;;;;27.35;23.15;;;8.60;65.90;;;;;;5002516;28;20774;-74
2021/01/18 12:52:14;;;;;;;28.42;22.42;;;9.10;64.60;;;;;;5002309;28;21210;-74
2021/01/18 12:54:40;;;;;;;29.20;24.00;;;9.10;63.80;;;;;;5001680;28;20428;-74
2021/01/18 12:57:06;;;;;;;28.50;24.40;;;9.10;64.90;;;;;;5002114;28;20408;-76
2021/01/18 12:59:32;;;;;;;29.55;25.83;;;8.70;63.90;;;;;;5001332;28;20399;-74
2021/01/18 13:02:03;;;;;;;30.42;24.88;;;8.40;65.00;;;;;;5001672;28;20747;-74
2021/01/18 13:04:29;;;;;;;28.42;24.35;;;8.30;66.00;;;;;;5002164;28;20424;-75
2021/01/18 13:06:54;;;;;;;28.20;22.67;;;8.30;65.90;;;;;;5005768;28;20395;-74
2021/01/18 13:09:20;;;;;;;24.70;20.25;;;8.50;65.10;;;;;;5010575;28;20437;-75
2021/01/18 13:11:48;;;;;;;21.80;18.67;;;8.50;61.80;;;;;;5003987;28;20395;-75
2021/01/18 13:14:15;;;;;;;26.10;21.57;;;8.60;60.50;;;;;;5010090;28;20996;-76
2021/01/18 13:16:42;;;;;;;25.02;20.23;;;8.60;60.50;;;;;;5002346;28;20403;-75
2021/01/18 13:19:09;;;;;;;25.05;21.55;;;8.70;58.60;;;;;;5003504;28;20751;-75
2021/01/18 13:21:35;;;;;;;31.75;27.23;;;8.70;59.90;;;;;;5007438;28;20403;-75
2021/01/18 13:24:01;;;;;;;39.58;34.55;;;8.80;60.30;;;;;;5026672;28;20405;-74
2021/01/18 13:26:26;;;;;;;37.60;33.17;;;8.80;58.80;;;;;;5002124;28;20813;-76
2021/01/18 13:28:53;;;;;;;24.33;19.07;;;8.90;59.00;;;;;;5004131;28;20399;-76
2021/01/18 13:31:19;;;;;;;22.50;18.05;;;9.00;57.70;;;;;;5014542;28;20764;-75
2021/01/18 13:33:46;;;;;;;22.80;18.42;;;;;;;;;;5008201;28;20463;-75
2021/01/18 13:36:20;;;;;;;22.15;17.95;;;;;;;;;;5010287;28;20768;-75
2021/01/18 13:38:46;;;;;;;22.40;17.80;;;;;;;;;;5007604;28;20425;-76
2021/01/18 13:41:13;;;;;;;22.80;19.17;;;;;;;;;;5015482;28;20471;-75